createdAt,value
2022-08-09T00:02:17.202Z,22.6
2022-08-09T00:07:13.723Z,22.5
2022-08-09T00:09:41.906Z,22.5
2022-08-09T00:12:10.187Z,22.5
2022-08-09T00:14:38.457Z,22.5
2022-08-09T00:17:06.730Z,22.4
2022-08-09T00:22:03.229Z,22.4
2022-08-09T00:24:31.506Z,22.3
2022-08-09T00:26:59.732Z,22.3
2022-08-09T00:29:27.972Z,22.2
2022-08-09T00:31:56.292Z,22.2
2022-08-09T00:36:52.802Z,22.2
2022-08-09T00:39:21.016Z,22.2
2022-08-09T00:41:49.262Z,22.1
2022-08-09T00:46:45.805Z,22
2022-08-09T00:48:02.428Z,22
2022-08-09T00:49:14.059Z,22
2022-08-09T00:51:42.363Z,22
2022-08-09T00:54:10.623Z,22
2022-08-09T00:59:07.149Z,22
2022-08-09T01:01:35.391Z,22
2022-08-09T01:04:03.644Z,21.9
2022-08-09T01:06:31.865Z,21.9
2022-08-09T01:09:00.104Z,21.9
2022-08-09T01:11:28.392Z,21.9
2022-08-09T01:12:45.017Z,21.9
2022-08-09T01:13:56.682Z,21.9
2022-08-09T01:16:24.897Z,21.9
2022-08-09T01:21:21.400Z,21.8
2022-08-09T01:23:49.707Z,21.8
2022-08-09T01:26:17.947Z,21.8
2022-08-09T01:28:46.213Z,21.7
2022-08-09T01:31:14.470Z,21.7
2022-08-09T01:37:27.597Z,21.6
2022-08-09T01:38:39.233Z,21.6
2022-08-09T01:43:35.722Z,21.6
2022-08-09T01:46:04.015Z,21.5
2022-08-09T01:48:32.247Z,21.5
2022-08-09T01:51:00.540Z,21.5
2022-08-09T01:53:28.764Z,21.4
2022-08-09T01:58:25.308Z,21.3
2022-08-09T02:00:53.585Z,21.3
2022-08-09T02:02:10.202Z,21.3
2022-08-09T02:03:21.844Z,21.3
2022-08-09T02:05:50.070Z,21.3
2022-08-09T02:08:18.322Z,21.3
2022-08-09T02:10:46.550Z,21.2
2022-08-09T02:13:14.851Z,21.2
2022-08-09T02:20:39.607Z,21.2
2022-08-09T02:23:07.832Z,21.2
2022-08-09T02:25:36.096Z,21.2
2022-08-09T02:30:32.683Z,21.1
2022-08-09T02:33:00.927Z,21.1
2022-08-09T02:35:29.131Z,21.1
2022-08-09T02:37:57.449Z,21.1
2022-08-09T02:40:25.674Z,21.1
2022-08-09T02:42:53.958Z,21.1
2022-08-09T02:47:50.424Z,21
2022-08-09T02:50:18.745Z,21
2022-08-09T02:51:35.360Z,21
2022-08-09T02:57:43.482Z,20.9
2022-08-09T03:00:11.780Z,20.9
2022-08-09T03:02:39.982Z,20.9
2022-08-09T03:05:08.270Z,20.9
2022-08-09T03:10:04.793Z,20.8
2022-08-09T03:12:33.032Z,20.7
2022-08-09T03:15:01.301Z,20.7
2022-08-09T03:16:17.969Z,20.7
2022-08-09T03:19:57.862Z,20.7
2022-08-09T03:22:26.072Z,20.7
2022-08-09T03:24:54.342Z,20.8
2022-08-09T03:27:22.567Z,20.8
2022-08-09T03:29:50.879Z,20.7
2022-08-09T03:32:19.140Z,20.7
2022-08-09T03:34:47.390Z,20.6
2022-08-09T03:37:15.659Z,20.6
2022-08-09T03:41:00.522Z,20.7
2022-08-09T03:42:12.156Z,20.7
2022-08-09T03:44:40.413Z,20.7
2022-08-09T03:47:08.654Z,20.6
2022-08-09T03:49:36.907Z,20.6
2022-08-09T03:52:05.183Z,20.6
2022-08-09T03:57:01.687Z,20.6
2022-08-09T03:59:29.959Z,20.6
2022-08-09T04:01:58.212Z,20.6
2022-08-09T04:04:26.449Z,20.6
2022-08-09T04:05:43.171Z,20.6
2022-08-09T04:06:54.717Z,20.5
2022-08-09T04:09:22.990Z,20.5
2022-08-09T04:14:19.547Z,20.4
2022-08-09T04:16:47.807Z,20.4
2022-08-09T04:19:16.035Z,20.5
2022-08-09T04:21:44.264Z,20.5
2022-08-09T04:26:40.783Z,20.4
2022-08-09T04:29:09.090Z,20.3
2022-08-09T04:31:37.304Z,20.2
2022-08-09T04:34:05.580Z,20.2
2022-08-09T04:36:33.863Z,20.2
2022-08-09T04:41:30.338Z,20.3
2022-08-09T04:43:58.632Z,20.3
2022-08-09T04:46:26.881Z,20.3
2022-08-09T04:48:55.161Z,20.3
2022-08-09T04:51:23.370Z,20.3
2022-08-09T04:53:51.657Z,20.3
2022-08-09T04:55:08.287Z,20.3
2022-08-09T04:56:19.934Z,20.3
2022-08-09T04:58:48.197Z,20.3
2022-08-09T05:01:16.433Z,20.4
2022-08-09T05:03:44.667Z,20.4
2022-08-09T05:06:12.951Z,20.4
2022-08-09T05:08:41.215Z,20.4
2022-08-09T05:11:09.493Z,20.4
2022-08-09T05:13:37.708Z,20.4
2022-08-09T05:16:05.952Z,20.5
2022-08-09T05:18:34.243Z,20.5
2022-08-09T05:19:50.919Z,20.4
2022-08-09T05:21:02.531Z,20.4
2022-08-09T05:23:30.756Z,20.5
2022-08-09T05:25:59.041Z,20.5
2022-08-09T05:28:27.266Z,20.5
2022-08-09T05:30:55.493Z,20.5
2022-08-09T05:33:23.816Z,20.5
2022-08-09T05:35:52.076Z,20.6
2022-08-09T05:40:48.581Z,20.6
2022-08-09T05:43:16.780Z,20.6
2022-08-09T05:44:33.504Z,20.6
2022-08-09T05:45:45.088Z,20.7
2022-08-09T05:48:13.340Z,20.7
2022-08-09T05:55:38.097Z,20.6
2022-08-09T05:58:06.359Z,20.6
2022-08-09T06:00:34.635Z,20.7
2022-08-09T06:03:02.906Z,20.7
2022-08-09T06:05:31.170Z,20.7
2022-08-09T06:09:16.074Z,20.7
2022-08-09T06:10:27.706Z,20.8
2022-08-09T06:12:55.895Z,20.8
2022-08-09T06:15:24.174Z,20.8
2022-08-09T06:17:52.446Z,20.8
2022-08-09T06:20:20.731Z,20.9
2022-08-09T06:22:48.983Z,20.9
2022-08-09T06:25:17.187Z,20.9
2022-08-09T06:27:45.455Z,20.9
2022-08-09T06:30:13.768Z,20.9
2022-08-09T06:35:10.279Z,21
2022-08-09T06:37:38.515Z,21
2022-08-09T06:40:06.786Z,21
2022-08-09T06:42:35.001Z,21
2022-08-09T06:45:03.324Z,21
2022-08-09T06:47:31.539Z,21.1
2022-08-09T06:49:59.841Z,21.1
2022-08-09T06:57:24.616Z,21.2
2022-08-09T06:58:41.273Z,21.2
2022-08-09T06:59:52.850Z,21.2
2022-08-09T07:02:21.101Z,21.2
2022-08-09T07:04:49.322Z,21.2
2022-08-09T07:07:17.594Z,21.3
2022-08-09T07:09:45.850Z,21.3
2022-08-09T07:12:14.147Z,21.3
2022-08-09T07:14:42.375Z,21.4
2022-08-09T07:17:10.634Z,21.4
2022-08-09T07:19:38.885Z,21.4
2022-08-09T07:22:07.151Z,21.5
2022-08-09T07:23:23.850Z,21.5
2022-08-09T07:24:35.431Z,21.5
2022-08-09T07:27:03.731Z,21.5
2022-08-09T07:29:31.956Z,21.6
2022-08-09T07:32:00.183Z,21.6
2022-08-09T07:39:24.966Z,21.8
2022-08-09T07:41:53.243Z,21.9
2022-08-09T07:44:21.484Z,21.9
2022-08-09T07:46:49.742Z,21.9
2022-08-09T07:48:06.424Z,22
2022-08-09T07:49:17.996Z,22
2022-08-09T07:54:14.570Z,22.1
2022-08-09T07:56:42.790Z,22.2
2022-08-09T08:06:35.807Z,22.4
2022-08-09T08:11:32.353Z,22.6
2022-08-09T08:12:48.997Z,22.6
2022-08-09T08:14:00.584Z,22.6
2022-08-09T08:16:28.858Z,22.7
2022-08-09T08:18:57.167Z,22.8
2022-08-09T08:21:25.373Z,22.9
2022-08-09T08:26:21.908Z,23.1
2022-08-09T08:28:50.171Z,23.2
2022-08-09T08:31:18.426Z,23.3
2022-08-09T08:33:46.712Z,23.3
2022-08-09T08:36:14.921Z,23.3
2022-08-09T08:38:43.192Z,23.4
2022-08-09T08:41:11.499Z,23.5
2022-08-09T08:43:39.736Z,23.6
2022-08-09T08:48:36.260Z,23.7
2022-08-09T08:56:00.989Z,24
2022-08-09T08:58:29.249Z,24
2022-08-09T09:00:57.548Z,24.1
2022-08-09T09:02:14.216Z,24.2
2022-08-09T09:03:25.816Z,24.2
2022-08-09T09:05:54.089Z,24.2
2022-08-09T09:08:22.306Z,24.2
2022-08-09T09:10:50.556Z,24.3
2022-08-09T09:13:18.838Z,24.4
2022-08-09T09:15:47.093Z,24.5
2022-08-09T09:18:15.379Z,24.6
2022-08-09T09:20:43.598Z,24.6
2022-08-09T09:25:40.152Z,24.7
2022-08-09T09:26:56.833Z,24.8
2022-08-09T09:28:08.382Z,24.8
2022-08-09T09:30:36.656Z,24.9
2022-08-09T09:33:04.880Z,25
2022-08-09T09:35:33.203Z,25
2022-08-09T09:38:01.417Z,25.1
2022-08-09T09:40:29.685Z,25.3
2022-08-09T09:45:26.177Z,25.6
2022-08-09T09:47:54.464Z,25.7
2022-08-09T09:50:22.751Z,25.8
2022-08-09T09:51:39.405Z,25.9
2022-08-09T09:52:50.989Z,26
2022-08-09T09:55:19.235Z,26
2022-08-09T09:57:47.525Z,26.1
2022-08-09T10:00:15.767Z,26.2
2022-08-09T10:02:44.008Z,26.4
2022-08-09T10:07:40.517Z,27
2022-08-09T10:10:08.802Z,27.5
2022-08-09T10:12:37.061Z,28.2
2022-08-09T10:15:05.338Z,29
2022-08-09T10:16:22.015Z,29.8
2022-08-09T10:17:33.614Z,30.2
2022-08-09T10:20:01.852Z,30.7
2022-08-09T10:24:58.381Z,33.2
2022-08-09T10:27:26.594Z,34.3
2022-08-09T10:29:54.907Z,35
2022-08-09T10:32:23.143Z,35.2
2022-08-09T10:34:51.397Z,35.9
2022-08-09T10:37:19.641Z,36.4
2022-08-09T10:39:47.918Z,37
2022-08-09T10:42:16.220Z,37.4
2022-08-09T10:44:44.414Z,37.6
2022-08-09T10:47:12.675Z,37.9
2022-08-09T10:54:37.515Z,38.6
2022-08-09T10:57:05.717Z,38.7
2022-08-09T10:59:34.013Z,38.8
2022-08-09T11:02:02.241Z,38.8
2022-08-09T11:04:30.527Z,39.1
2022-08-09T11:05:47.185Z,39.1
2022-08-09T11:06:58.775Z,38.9
2022-08-09T11:09:27.084Z,39
2022-08-09T11:11:55.295Z,39.1
2022-08-09T11:16:51.796Z,39.2
2022-08-09T11:21:48.363Z,38.9
2022-08-09T11:24:16.625Z,39
2022-08-09T11:26:44.837Z,39.1
2022-08-09T11:30:29.811Z,39.1
2022-08-09T11:31:41.439Z,39.1
2022-08-09T11:34:09.671Z,39
2022-08-09T11:36:37.919Z,38.7
2022-08-09T11:39:06.160Z,38.6
2022-08-09T11:41:34.426Z,38.6
2022-08-09T11:46:30.950Z,38.2
2022-08-09T11:51:27.466Z,38.3
2022-08-09T11:53:55.723Z,38.4
2022-08-09T11:55:12.409Z,38.3
2022-08-09T11:56:24.013Z,38.4
2022-08-09T11:58:52.258Z,38.4
2022-08-09T12:01:20.496Z,38.4
2022-08-09T12:03:48.782Z,38.4
2022-08-09T12:08:45.312Z,37.2
2022-08-09T12:11:13.523Z,37.3
2022-08-09T12:13:41.828Z,37.4
2022-08-09T12:16:10.041Z,37.8
2022-08-09T12:18:38.344Z,38.3
2022-08-09T12:19:55.024Z,38.6
2022-08-09T12:21:06.608Z,38.7
2022-08-09T12:26:03.082Z,39
2022-08-09T12:30:59.670Z,38.9
2022-08-09T12:33:27.903Z,38.7
2022-08-09T12:35:56.140Z,38
2022-08-09T12:40:52.691Z,38.5
2022-08-09T12:43:20.912Z,38.6
2022-08-09T12:45:49.225Z,38.5
2022-08-09T12:53:13.948Z,38.6
2022-08-09T12:55:42.256Z,38.8
2022-08-09T12:58:10.467Z,38.8
2022-08-09T13:00:38.794Z,38.7
2022-08-09T13:03:07.007Z,38
2022-08-09T13:05:35.232Z,37.6
2022-08-09T13:08:03.532Z,37.3
2022-08-09T13:09:20.212Z,37.2
2022-08-09T13:13:00.058Z,36.8
2022-08-09T13:17:56.565Z,36.2
2022-08-09T13:20:24.836Z,35.8
2022-08-09T13:22:53.076Z,35.3
2022-08-09T13:25:21.383Z,34.9
2022-08-09T13:27:49.640Z,34.6
2022-08-09T13:30:17.895Z,34.5
2022-08-09T13:32:46.150Z,34.3
2022-08-09T13:34:02.766Z,34.2
2022-08-09T13:35:14.399Z,34
2022-08-09T13:37:42.625Z,33.9
2022-08-09T13:45:07.426Z,33.7
2022-08-09T13:47:35.662Z,33.6
2022-08-09T13:50:03.971Z,33.5
2022-08-09T13:52:32.200Z,33.5
2022-08-09T13:55:00.447Z,33.4
2022-08-09T13:57:28.748Z,33.2
2022-08-09T13:58:45.432Z,33.2
2022-08-09T13:59:57.032Z,33.1
2022-08-09T14:02:25.281Z,33
2022-08-09T14:09:50.062Z,32.9
2022-08-09T14:12:18.248Z,33
2022-08-09T14:14:46.512Z,33
2022-08-09T14:17:14.826Z,33
2022-08-09T14:19:43.073Z,32.9
2022-08-09T14:22:11.307Z,32.8
2022-08-09T14:23:28.000Z,32.8
2022-08-09T14:24:39.617Z,32.7
2022-08-09T14:27:07.875Z,32.7
2022-08-09T14:29:36.101Z,32.6
2022-08-09T14:32:04.358Z,32.5
2022-08-09T14:34:32.622Z,32.4
2022-08-09T14:37:00.899Z,32.4
2022-08-09T14:39:29.113Z,32.3
2022-08-09T14:41:57.359Z,32.3
2022-08-09T14:44:25.643Z,32.4
2022-08-09T14:46:53.909Z,32.3
2022-08-09T14:49:22.212Z,32.4
2022-08-09T14:51:50.422Z,32.3
2022-08-09T14:54:18.702Z,32.3
2022-08-09T14:56:46.961Z,32.3
2022-08-09T14:59:15.192Z,32.3
2022-08-09T15:04:11.735Z,32.2
2022-08-09T15:06:39.987Z,32.1
2022-08-09T15:09:08.247Z,32
2022-08-09T15:11:36.499Z,31.9
2022-08-09T15:12:53.181Z,31.9
2022-08-09T15:14:04.757Z,31.9
2022-08-09T15:19:01.274Z,31.9
2022-08-09T15:21:29.530Z,31.8
2022-08-09T15:23:57.803Z,31.8
2022-08-09T15:26:26.063Z,31.8
2022-08-09T15:28:54.309Z,31.8
2022-08-09T15:31:22.545Z,31.6
2022-08-09T15:33:50.835Z,31.6
2022-08-09T15:36:19.117Z,31.5
2022-08-09T15:37:35.750Z,31.6
2022-08-09T15:38:47.365Z,31.5
2022-08-09T15:43:43.897Z,31.4
2022-08-09T15:48:40.385Z,31.5
2022-08-09T15:51:08.614Z,31.5
2022-08-09T15:53:36.880Z,31.4
2022-08-09T15:58:33.399Z,31.4
2022-08-09T16:01:01.680Z,31.3
2022-08-09T16:02:18.306Z,31.3
2022-08-09T16:03:29.943Z,31.3
2022-08-09T16:05:58.170Z,31.3
2022-08-09T16:10:54.745Z,31.1
2022-08-09T16:13:22.957Z,31.1
2022-08-09T16:18:19.513Z,31
2022-08-09T16:20:47.771Z,31
2022-08-09T16:23:15.977Z,31
2022-08-09T16:27:00.953Z,31
2022-08-09T16:28:12.535Z,31
2022-08-09T16:30:40.746Z,31
2022-08-09T16:33:09.059Z,30.9
2022-08-09T16:35:37.300Z,30.9
2022-08-09T16:38:05.547Z,30.8
2022-08-09T16:43:02.053Z,30.7
2022-08-09T16:45:30.294Z,30.7
2022-08-09T16:47:58.577Z,30.7
2022-08-09T16:50:26.805Z,30.7
2022-08-09T16:52:55.079Z,30.5
2022-08-09T16:55:23.395Z,30.5
2022-08-09T16:57:51.622Z,30.4
2022-08-09T17:00:19.851Z,30.4
2022-08-09T17:02:48.140Z,30.4
2022-08-09T17:05:16.362Z,30.4
2022-08-09T17:07:44.664Z,30.4
2022-08-09T17:10:12.942Z,30.4
2022-08-09T17:12:41.200Z,30.3
2022-08-09T17:15:09.414Z,30.3
2022-08-09T17:16:26.063Z,30.2
2022-08-09T17:17:37.735Z,30.1
2022-08-09T17:20:05.938Z,30.1
2022-08-09T17:22:34.187Z,30.1
2022-08-09T17:27:30.717Z,30
2022-08-09T17:29:58.978Z,30
2022-08-09T17:32:27.263Z,29.9
2022-08-09T17:37:23.759Z,29.7
2022-08-09T17:39:52.028Z,29.7
2022-08-09T17:41:08.713Z,29.7
2022-08-09T17:42:20.248Z,29.7
2022-08-09T17:44:48.566Z,29.7
2022-08-09T17:49:45.030Z,29.5
2022-08-09T17:52:13.325Z,29.5
2022-08-09T17:57:09.814Z,29.4
2022-08-09T17:59:38.119Z,29.4
2022-08-09T18:02:06.327Z,29.3
2022-08-09T18:04:34.584Z,29.3
2022-08-09T18:05:51.288Z,29.2
2022-08-09T18:07:02.870Z,29.2
2022-08-09T18:09:31.121Z,29.2
2022-08-09T18:11:59.376Z,29.2
2022-08-09T18:14:27.647Z,29.1
2022-08-09T18:16:55.933Z,29
2022-08-09T18:19:24.170Z,29
2022-08-09T18:21:52.405Z,28.9
2022-08-09T18:24:20.639Z,28.9
2022-08-09T18:26:48.930Z,28.8
2022-08-09T18:29:17.210Z,28.7
2022-08-09T18:30:33.847Z,28.7
2022-08-09T18:31:45.495Z,28.7
2022-08-09T18:39:10.233Z,28.6
2022-08-09T18:41:38.476Z,28.6
2022-08-09T18:44:06.739Z,28.5
2022-08-09T18:46:35.011Z,28.5
2022-08-09T18:49:03.257Z,28.4
2022-08-09T18:53:59.768Z,28.2
2022-08-09T18:56:28.035Z,28.2
2022-08-09T18:58:56.270Z,28.2
2022-08-09T19:01:24.550Z,28.2
2022-08-09T19:03:52.796Z,28.1
2022-08-09T19:11:17.605Z,27.9
2022-08-09T19:13:45.815Z,27.9
2022-08-09T19:16:14.081Z,27.8
2022-08-09T19:18:42.379Z,27.8
2022-08-09T19:19:59.054Z,27.8
2022-08-09T19:21:10.698Z,27.7
2022-08-09T19:23:38.900Z,27.8
2022-08-09T19:26:07.116Z,27.7
2022-08-09T19:28:35.410Z,27.7
2022-08-09T19:31:03.694Z,27.6
2022-08-09T19:33:31.941Z,27.6
2022-08-09T19:36:00.205Z,27.6
2022-08-09T19:38:28.433Z,27.5
2022-08-09T19:40:56.734Z,27.5
2022-08-09T19:43:24.000Z,27.4
2022-08-09T19:44:41.642Z,27.4
2022-08-09T19:45:53.243Z,27.5
2022-08-09T19:48:21.483Z,27.5
2022-08-09T19:55:46.260Z,27.4
2022-08-09T20:00:42.806Z,27.3
2022-08-09T20:03:11.011Z,27.3
2022-08-09T20:08:07.570Z,27.3
2022-08-09T20:09:24.186Z,27.2
2022-08-09T20:10:35.854Z,27.2
2022-08-09T20:13:04.069Z,27.1
2022-08-09T20:15:32.349Z,27
2022-08-09T20:18:00.591Z,27.1
2022-08-09T20:20:28.828Z,27
2022-08-09T20:25:25.330Z,27
2022-08-09T20:27:53.650Z,27
2022-08-09T20:30:21.904Z,26.9
2022-08-09T20:32:50.157Z,26.9
2022-08-09T20:34:06.793Z,26.9
2022-08-09T20:37:46.665Z,26.9
2022-08-09T20:40:14.945Z,26.8
2022-08-09T20:42:43.149Z,26.8
2022-08-09T20:47:39.700Z,26.7
2022-08-09T20:50:07.973Z,26.7
2022-08-09T20:55:04.445Z,26.6
2022-08-09T20:57:32.736Z,26.5
2022-08-09T21:00:01.041Z,26.5
2022-08-09T21:02:29.254Z,26.4
2022-08-09T21:04:57.499Z,26.3
2022-08-09T21:07:25.820Z,26.2
2022-08-09T21:09:54.017Z,26.2
2022-08-09T21:14:50.542Z,26.2
2022-08-09T21:17:18.819Z,26.2
2022-08-09T21:22:15.327Z,26.2
2022-08-09T21:23:31.988Z,26.1
2022-08-09T21:27:11.854Z,26.1
2022-08-09T21:29:40.128Z,26.1
2022-08-09T21:32:08.378Z,26.1
2022-08-09T21:39:33.194Z,26
2022-08-09T21:42:01.424Z,25.9
2022-08-09T21:44:29.645Z,25.9
2022-08-09T21:46:57.961Z,25.9
2022-08-09T21:48:14.577Z,25.9
2022-08-09T21:49:26.212Z,25.8
2022-08-09T21:51:54.445Z,25.8
2022-08-09T21:54:22.704Z,25.8
2022-08-09T21:56:51.006Z,25.8
2022-08-09T21:59:19.249Z,25.7
2022-08-09T22:01:47.509Z,25.7
2022-08-09T22:04:15.761Z,25.6
2022-08-09T22:06:44.025Z,25.5
2022-08-09T22:09:12.303Z,25.4
2022-08-09T22:11:40.513Z,25.4
2022-08-09T22:12:57.169Z,25.4
2022-08-09T22:16:37.083Z,25.5
2022-08-09T22:19:05.347Z,25.5
2022-08-09T22:21:33.568Z,25.5
2022-08-09T22:24:01.862Z,25.4
2022-08-09T22:28:58.386Z,25.4
2022-08-09T22:31:26.641Z,25.4
2022-08-09T22:33:54.847Z,25.3
2022-08-09T22:36:23.103Z,25.3
2022-08-09T22:37:39.792Z,25.3
2022-08-09T22:38:51.400Z,25.3
2022-08-09T22:41:19.654Z,25.3
2022-08-09T22:43:47.885Z,25.3
2022-08-09T22:46:16.165Z,25.1
2022-08-09T22:48:44.411Z,25.1
2022-08-09T22:51:12.726Z,25.2
2022-08-09T22:53:40.974Z,25.1
2022-08-09T22:56:09.202Z,25.1
2022-08-09T22:58:37.440Z,25.1
2022-08-09T23:01:05.737Z,25.1
2022-08-09T23:03:33.998Z,25.1
2022-08-09T23:08:30.524Z,25
2022-08-09T23:10:58.783Z,25
2022-08-09T23:13:27.052Z,24.9
2022-08-09T23:15:55.295Z,24.9
2022-08-09T23:18:23.547Z,24.9
2022-08-09T23:20:51.808Z,24.9
2022-08-09T23:23:20.106Z,24.9
2022-08-09T23:25:48.380Z,24.9
2022-08-09T23:28:16.582Z,24.9
2022-08-09T23:30:44.854Z,24.8
2022-08-09T23:33:13.140Z,24.7
2022-08-09T23:38:09.620Z,24.6
2022-08-09T23:43:06.166Z,24.5
2022-08-09T23:45:34.402Z,24.5
2022-08-09T23:48:02.638Z,24.5
2022-08-09T23:50:30.952Z,24.4
2022-08-09T23:51:47.578Z,24.4
2022-08-09T23:52:59.233Z,24.3
2022-08-09T23:57:55.680Z,24.3
